Time;durP1;ratioP1;P1;durP2;ratioP2;P2;SDS_P1;SDS_P2;PMS_P1;PMS_P2;Temp;Humidity;BMP_temperature;BMP_pressure;BME280_temperature;BME280_humidity;BME280_pressure;Samples;Min_cycle;Max_cycle;Signal;HPM_P1;HPM_P2
2023/09/10 00:00:32;;;;;;;8.87;6.70;;;;;;;18.06;78.04;100938.31;5045391;28;20200;-79
2023/09/10 00:02:58;;;;;;;7.60;6.80;;;;;;;18.02;78.65;100938.59;5050071;28;20238;-76
2023/09/10 00:05:25;;;;;;;8.20;7.40;;;;;;;18.01;79.50;100946.81;5042461;28;20588;-78
2023/09/10 00:07:51;;;;;;;8.57;7.50;;;;;;;18.02;79.86;100938.59;5045927;28;20939;-78
2023/09/10 00:10:19;;;;;;;7.13;6.53;;;;;;;17.99;80.17;100940.69;5049315;28;20201;-78
2023/09/10 00:12:46;;;;;;;7.20;6.50;;;;;;;17.95;80.10;100939.25;5052918;28;20235;-79
2023/09/10 00:15:12;;;;;;;6.97;6.37;;;;;;;17.93;80.77;100943.94;5054490;28;20212;-79
2023/09/10 00:17:39;;;;;;;7.30;6.60;;;;;;;17.93;80.88;100941.25;5053102;28;20216;-78
2023/09/10 00:20:07;;;;;;;7.20;6.57;;;;;;;17.93;81.11;100936.69;5046173;28;20226;-78
2023/09/10 00:22:34;;;;;;;7.27;6.60;;;;;;;17.90;80.56;100931.63;5054710;28;20272;-79
2023/09/10 00:25:00;;;;;;;7.60;6.80;;;;;;;17.87;80.47;100934.59;5053206;28;20220;-79
2023/09/10 00:27:28;;;;;;;7.27;6.57;;;;;;;17.82;80.66;100928.75;5050518;28;20219;-78
2023/09/10 00:29:54;;;;;;;8.13;7.13;;;;;;;17.77;81.29;100933.69;5051124;28;20223;-78
2023/09/10 00:32:21;;;;;;;7.67;6.87;;;;;;;17.76;81.71;100933.81;5051210;28;20885;-78
2023/09/10 00:34:48;;;;;;;8.03;7.27;;;;;;;17.76;82.01;100931.13;5045258;28;20222;-79
2023/09/10 00:37:16;;;;;;;8.17;7.13;;;;;;;17.76;82.06;100928.41;5048249;28;20568;-78
2023/09/10 00:39:42;;;;;;;8.07;7.37;;;;;;;17.74;82.16;100923.16;5049158;28;20250;-78
2023/09/10 00:42:09;;;;;;;7.80;6.70;;;;;;;17.73;82.29;100929.56;5052104;28;20564;-79
2023/09/10 00:44:38;;;;;;;8.63;6.73;;;;;;;17.68;82.52;100929.97;5052561;28;20262;-77
2023/09/10 00:47:05;;;;;;;7.90;7.20;;;;;;;17.69;82.59;100934.38;5048072;28;20197;-78
2023/09/10 00:49:32;;;;;;;7.90;6.50;;;;;;;17.66;82.89;100926.56;5046793;28;20208;-78
2023/09/10 00:52:01;;;;;;;7.70;6.63;;;;;;;17.66;82.94;100933.78;5049870;28;20223;-78
2023/09/10 00:54:33;;;;;;;8.07;7.27;;;;;;;17.64;83.17;100925.84;5046165;28;20215;-77
2023/09/10 00:57:01;;;;;;;7.77;7.07;;;;;;;17.65;83.41;100934.78;5045994;28;20268;-78
2023/09/10 00:59:28;;;;;;;8.10;7.30;;;;;;;17.65;83.80;100934.78;5052152;28;20762;-78
2023/09/10 01:01:58;;;;;;;7.90;7.20;;;;;;;17.67;84.25;100947.13;5044371;28;20653;-77
2023/09/10 01:04:24;;;;;;;7.80;7.00;;;;;;;17.69;84.71;100937.06;5049676;28;20199;-78
2023/09/10 01:06:52;;;;;;;8.37;7.57;;;;;;;17.70;85.12;100935.22;5047412;28;20231;-77
2023/09/10 01:09:18;;;;;;;8.73;7.73;;;;;;;17.68;85.41;100947.97;5049100;28;20207;-78
2023/09/10 01:11:53;;;;;;;8.17;7.37;;;;;;;17.62;84.96;100946.63;5050662;28;20235;-77
2023/09/10 01:14:26;;;;;;;9.20;8.13;;;;;;;17.56;84.40;100944.47;5051254;28;20562;-79
2023/09/10 01:17:03;;;;;;;8.73;7.93;;;;;;;17.50;84.62;100957.66;5058735;28;20199;-79
2023/09/10 01:20:00;;;;;;;7.80;7.00;;;;;;;17.42;84.84;100954.75;5051103;28;20679;-78
2023/09/10 01:22:37;;;;;;;9.57;8.17;;;;;;;17.34;85.79;100947.34;5044420;28;20228;-78
2023/09/10 01:25:06;;;;;;;8.20;7.40;;;;;;;17.31;86.31;100943.09;5046420;28;20222;-78
2023/09/10 01:27:33;;;;;;;9.77;7.70;;;;;;;17.28;86.69;100954.13;5053403;28;20202;-78
2023/09/10 01:29:59;;;;;;;8.80;8.00;;;;;;;17.25;87.41;100943.59;5061359;28;20223;-78
2023/09/10 01:32:31;;;;;;;9.33;7.33;;;;;;;17.26;87.82;100944.47;5048238;28;20226;-78
2023/09/10 01:35:03;;;;;;;7.93;7.13;;;;;;;17.26;88.09;100944.47;5054802;28;20665;-78
2023/09/10 01:37:36;;;;;;;8.60;7.80;;;;;;;17.27;88.57;100949.72;5052611;28;20213;-79
2023/09/10 01:40:06;;;;;;;9.17;7.93;;;;;;;17.28;89.15;100943.34;5062442;28;20211;-79
2023/09/10 01:42:35;;;;;;;8.20;7.43;;;;;;;17.28;89.76;100940.66;5049477;28;20725;-78
2023/09/10 01:45:02;;;;;;;9.13;7.23;;;;;;;17.32;90.17;100943.94;5055262;28;20814;-79
2023/09/10 01:47:29;;;;;;;7.63;6.93;;;;;;;17.31;89.35;100947.63;5054664;28;20244;-78
2023/09/10 01:49:56;;;;;;;8.27;6.83;;;;;;;17.23;87.76;100937.50;5045912;28;20224;-78
2023/09/10 01:52:22;;;;;;;7.40;6.70;;;;;;;17.14;87.04;100953.59;5042800;28;20231;-78
2023/09/10 01:54:49;;;;;;;7.93;7.07;;;;;;;17.07;86.89;100939.81;5052941;28;20213;-78
2023/09/10 01:57:17;;;;;;;8.50;7.70;;;;;;;17.00;87.34;100944.88;5048143;28;20212;-79
2023/09/10 01:59:43;;;;;;;7.43;6.63;;;;;;;16.94;88.45;100931.94;5054463;28;20207;-79
2023/09/10 02:02:10;;;;;;;7.30;6.70;;;;;;;16.91;88.95;100940.28;5053416;28;20199;-78
2023/09/10 02:04:36;;;;;;;8.00;7.20;;;;;;;16.90;88.97;100935.88;5046509;28;20207;-78
2023/09/10 02:07:03;;;;;;;13.67;7.70;;;;;;;16.91;89.22;100934.03;5051155;28;20221;-78
2023/09/10 02:09:29;;;;;;;9.07;7.40;;;;;;;16.92;89.40;100941.13;5052092;28;20205;-78
2023/09/10 02:11:56;;;;;;;8.70;7.77;;;;;;;16.91;89.26;100934.03;5049360;28;20558;-77
2023/09/10 02:14:24;;;;;;;8.73;7.20;;;;;;;16.89;89.44;100933.31;5050289;28;20656;-79
2023/09/10 02:16:50;;;;;;;11.00;7.73;;;;;;;16.89;89.56;100941.38;5051292;28;20216;-80
2023/09/10 02:19:17;;;;;;;7.77;7.07;;;;;;;16.89;89.75;100947.63;5055637;28;20225;-79
2023/09/10 02:21:43;;;;;;;8.20;7.40;;;;;;;16.89;89.92;100941.38;5054456;28;20203;-80
2023/09/10 02:24:10;;;;;;;7.80;7.00;;;;;;;16.90;89.87;100945.78;5051215;28;20234;-79
2023/09/10 02:26:36;;;;;;;8.23;7.53;;;;;;;16.88;89.77;100942.38;5054223;28;20206;-78
2023/09/10 02:29:03;;;;;;;8.00;7.07;;;;;;;16.85;89.66;100939.94;5051751;28;20203;-78
2023/09/10 02:31:31;;;;;;;8.10;7.30;;;;;;;16.84;89.46;100944.47;5044384;28;20225;-79
2023/09/10 02:34:00;;;;;;;9.97;7.40;;;;;;;16.82;89.48;100940.22;5044815;28;20229;-80
2023/09/10 02:36:27;;;;;;;8.00;7.30;;;;;;;16.82;89.65;100954.53;5046798;28;20202;-79
2023/09/10 02:38:54;;;;;;;8.53;7.73;;;;;;;16.81;89.77;100960.03;5046180;28;20808;-79
2023/09/10 02:41:20;;;;;;;8.57;7.67;;;;;;;16.78;90.21;100957.59;5041339;28;20206;-79
2023/09/10 02:43:47;;;;;;;9.13;8.23;;;;;;;16.74;89.97;100957.00;5043529;28;20229;-79
2023/09/10 02:46:13;;;;;;;10.70;7.80;;;;;;;16.71;89.68;100964.47;5044938;28;20214;-79
2023/09/10 02:48:41;;;;;;;8.27;7.47;;;;;;;16.70;90.07;100962.75;5053531;28;20217;-79
2023/09/10 02:51:07;;;;;;;10.00;8.23;;;;;;;16.67;90.65;100969.25;5047765;28;20285;-79
2023/09/10 02:53:34;;;;;;;8.70;7.70;;;;;;;16.67;91.00;100963.84;5051545;28;20230;-78
2023/09/10 02:56:00;;;;;;;8.33;7.53;;;;;;;16.66;91.25;100964.84;5048758;28;20206;-79
2023/09/10 02:58:27;;;;;;;7.53;6.83;;;;;;;16.65;91.28;100969.41;5045052;28;20713;-79
2023/09/10 03:00:53;;;;;;;8.70;7.80;;;;;;;16.66;91.54;100972.91;5052104;28;20221;-79
2023/09/10 03:03:20;;;;;;;8.33;7.57;;;;;;;16.66;91.61;100967.53;5040950;28;20223;-78
2023/09/10 03:05:48;;;;;;;10.23;8.17;;;;;;;16.65;91.51;100969.41;5041093;28;20217;-78
2023/09/10 03:08:14;;;;;;;8.27;7.47;;;;;;;16.61;90.91;100962.53;5051817;28;20210;-78
2023/09/10 03:10:41;;;;;;;9.33;8.33;;;;;;;16.58;90.69;100972.69;5035564;28;20203;-79
2023/09/10 03:13:07;;;;;;;8.40;7.50;;;;;;;16.54;90.65;100971.22;5051652;28;20718;-78
2023/09/10 03:15:33;;;;;;;8.20;7.37;;;;;;;16.49;90.80;100974.28;5043610;28;20557;-77
2023/09/10 03:18:00;;;;;;;8.63;7.43;;;;;;;16.44;90.95;100978.34;5040594;28;20234;-79
2023/09/10 03:20:26;;;;;;;8.20;7.40;;;;;;;16.41;91.25;100968.69;5044911;28;20210;-78
2023/09/10 03:22:58;;;;;;;8.70;7.83;;;;;;;16.40;91.36;100967.00;5052618;28;20228;-78
2023/09/10 03:25:25;;;;;;;11.90;8.07;;;;;;;16.37;91.05;100977.13;5051763;28;20348;-78
2023/09/10 03:27:51;;;;;;;7.93;7.13;;;;;;;16.32;90.73;100967.59;5051283;28;20678;-78
2023/09/10 03:30:18;;;;;;;7.87;7.10;;;;;;;16.29;90.85;100975.09;5052752;28;20204;-76
2023/09/10 03:32:44;;;;;;;9.00;6.80;;;;;;;16.24;90.60;100977.28;5046577;28;20229;-78
2023/09/10 03:35:12;;;;;;;10.67;7.77;;;;;;;16.20;90.11;100965.94;5051569;28;20209;-78
2023/09/10 03:37:38;;;;;;;8.20;7.50;;;;;;;16.13;89.88;100969.25;5047207;28;20649;-77
2023/09/10 03:40:08;;;;;;;8.80;7.90;;;;;;;16.07;90.23;100965.25;5042004;28;20642;-79
2023/09/10 03:42:35;;;;;;;8.60;7.67;;;;;;;16.02;90.18;100974.63;5044391;28;20642;-79
2023/09/10 03:45:02;;;;;;;8.77;7.97;;;;;;;15.97;90.55;100981.22;5048961;28;20808;-78
2023/09/10 03:47:29;;;;;;;9.70;7.77;;;;;;;15.94;91.12;100973.41;5049941;28;20320;-79
2023/09/10 03:49:55;;;;;;;9.93;8.07;;;;;;;15.92;91.02;100969.16;5052815;28;20208;-79
2023/09/10 03:52:22;;;;;;;8.83;7.93;;;;;;;15.91;91.92;100972.84;5051838;28;20289;-79
2023/09/10 03:54:49;;;;;;;9.13;7.33;;;;;;;15.89;91.82;100967.59;5043595;28;20215;-80
2023/09/10 03:57:16;;;;;;;12.73;8.47;;;;;;;15.89;91.81;100969.41;5040114;28;20210;-79
2023/09/10 03:59:43;;;;;;;9.43;8.53;;;;;;;15.86;92.27;100972.34;5048450;28;20207;-80
2023/09/10 04:02:10;;;;;;;9.47;8.53;;;;;;;15.85;92.54;100974.16;5050999;28;20208;-79
2023/09/10 04:04:37;;;;;;;9.03;8.13;;;;;;;15.82;92.68;100971.72;5045612;28;20211;-79
2023/09/10 04:07:04;;;;;;;9.77;7.93;;;;;;;15.80;92.36;100972.81;5045964;28;20208;-79
2023/09/10 04:09:30;;;;;;;9.50;7.90;;;;;;;15.78;92.95;100985.50;5036633;28;20235;-79
2023/09/10 04:11:57;;;;;;;8.70;7.90;;;;;;;15.75;92.55;100975.91;5047340;28;20234;-79
2023/09/10 04:14:26;;;;;;;8.43;7.63;;;;;;;15.70;92.28;100967.34;5048221;28;20207;-78
2023/09/10 04:16:52;;;;;;;9.10;8.30;;;;;;;15.60;92.75;100967.22;5050127;28;20239;-79
2023/09/10 04:19:19;;;;;;;13.30;8.50;;;;;;;15.55;93.68;100971.22;5044170;28;20213;-79
2023/09/10 04:21:46;;;;;;;8.97;8.17;;;;;;;15.53;94.21;100974.03;5052125;28;20234;-79
2023/09/10 04:24:12;;;;;;;8.90;8.10;;;;;;;15.53;94.36;100983.91;5041838;28;20219;-79
2023/09/10 04:26:38;;;;;;;8.20;7.43;;;;;;;15.53;94.83;100974.03;5039719;28;20207;-78
2023/09/10 04:29:06;;;;;;;7.90;7.20;;;;;;;15.53;94.15;100975.84;5041321;28;20206;-78
2023/09/10 04:31:37;;;;;;;8.47;7.20;;;;;;;15.51;93.81;100977.78;5045554;28;20212;-78
2023/09/10 04:34:03;;;;;;;8.53;7.73;;;;;;;15.47;93.69;100979.84;5051328;28;20225;-79
2023/09/10 04:36:30;;;;;;;9.97;8.33;;;;;;;15.47;93.94;100981.69;5051990;28;20210;-79
2023/09/10 04:38:56;;;;;;;8.87;8.07;;;;;;;15.47;94.13;100989.75;5051667;28;20206;-79
2023/09/10 04:41:23;;;;;;;9.53;8.57;;;;;;;15.47;94.42;100987.91;5045462;28;20211;-79
2023/09/10 04:43:49;;;;;;;14.70;9.83;;;;;;;15.48;94.39;100986.09;5038693;28;20254;-78
2023/09/10 04:46:16;;;;;;;9.57;8.20;;;;;;;15.47;94.10;100992.44;5042550;28;20226;-76
2023/09/10 04:48:45;;;;;;;9.17;8.27;;;;;;;15.48;94.60;100983.41;5049241;28;20199;-78
2023/09/10 04:51:11;;;;;;;9.00;8.10;;;;;;;15.47;94.69;100993.28;5050812;28;20203;-79
2023/09/10 04:53:37;;;;;;;8.33;7.63;;;;;;;15.48;94.33;100989.63;5049964;28;20231;-79
2023/09/10 04:56:04;;;;;;;8.70;7.77;;;;;;;15.44;93.97;100987.28;5042586;28;21521;-78
2023/09/10 04:58:31;;;;;;;8.27;7.00;;;;;;;15.42;93.23;100999.97;5039463;28;20214;-79
2023/09/10 05:00:57;;;;;;;7.90;7.10;;;;;;;15.39;93.70;100994.88;5041727;28;20222;-79
2023/09/10 05:03:24;;;;;;;9.80;7.53;;;;;;;15.37;93.77;100994.13;5055094;28;20225;-77
2023/09/10 05:05:58;;;;;;;9.63;8.63;;;;;;;15.38;94.32;101003.91;5045809;28;20234;-78
2023/09/10 05:08:25;;;;;;;8.27;7.50;;;;;;;15.39;94.94;101009.16;5044836;28;20660;-78
2023/09/10 05:10:51;;;;;;;8.53;7.63;;;;;;;15.41;94.44;101000.94;5049654;28;20218;-79
2023/09/10 05:13:18;;;;;;;10.20;7.50;;;;;;;15.37;93.94;101002.19;5050672;28;20228;-78
2023/09/10 05:15:46;;;;;;;10.30;6.97;;;;;;;15.29;93.30;101006.31;5048792;28;20210;-79
2023/09/10 05:18:13;;;;;;;11.63;7.00;;;;;;;15.24;92.52;101010.31;5054033;28;20601;-79
2023/09/10 05:20:39;;;;;;;10.70;7.27;;;;;;;15.17;92.38;101018.00;5052474;28;20221;-78
2023/09/10 05:23:07;;;;;;;11.23;7.00;;;;;;;15.15;92.71;101022.63;5046837;28;20234;-78
2023/09/10 05:25:35;;;;;;;8.77;7.43;;;;;;;15.14;93.56;101020.03;5052725;28;20205;-77
2023/09/10 05:28:02;;;;;;;8.17;7.37;;;;;;;15.15;94.81;101017.25;5053817;28;20202;-79
2023/09/10 05:30:29;;;;;;;9.77;8.20;;;;;;;15.20;96.47;101025.81;5049691;28;20313;-78
2023/09/10 05:32:56;;;;;;;9.17;8.20;;;;;;;15.26;97.48;101021.78;5053385;28;20237;-79
2023/09/10 05:35:23;;;;;;;9.47;8.50;;;;;;;15.33;98.40;101023.03;5053945;28;20224;-78
2023/09/10 05:37:50;;;;;;;10.97;8.80;;;;;;;15.42;99.45;101032.19;5048309;28;20521;-77
2023/09/10 05:40:18;;;;;;;14.30;9.30;;;;;;;15.50;100.00;101032.47;5044747;28;20203;-78
2023/09/10 05:42:45;;;;;;;10.40;9.30;;;;;;;15.58;100.00;101035.44;5044842;28;20268;-79
2023/09/10 05:45:12;;;;;;;10.53;9.43;;;;;;;15.66;100.00;101041.06;5047990;28;20196;-80
2023/09/10 05:47:38;;;;;;;10.60;9.50;;;;;;;15.74;100.00;101030.59;5050676;28;20214;-77
2023/09/10 05:50:06;;;;;;;11.03;9.67;;;;;;;15.83;100.00;101037.03;5047727;28;20650;-79
2023/09/10 05:52:32;;;;;;;10.97;9.87;;;;;;;15.91;100.00;101027.41;5048946;28;20233;-77
2023/09/10 05:54:59;;;;;;;10.30;9.20;;;;;;;16.01;100.00;101037.41;5043233;28;20592;-78
2023/09/10 05:57:26;;;;;;;10.33;9.33;;;;;;;16.10;100.00;101042.06;5049632;28;20554;-78
2023/09/10 05:59:53;;;;;;;11.20;9.50;;;;;;;16.20;100.00;101040.31;5053574;28;20216;-78
2023/09/10 06:02:19;;;;;;;11.00;9.90;;;;;;;16.31;100.00;101045.69;5050154;28;20233;-78
2023/09/10 06:04:46;;;;;;;10.67;9.30;;;;;;;16.39;100.00;101045.94;5047394;28;20204;-78
2023/09/10 06:07:12;;;;;;;11.30;9.57;;;;;;;16.47;100.00;101048.00;5053669;28;20240;-80
2023/09/10 06:09:39;;;;;;;11.03;9.93;;;;;;;16.53;100.00;101037.56;5053220;28;20209;-80
2023/09/10 06:12:06;;;;;;;10.30;9.33;;;;;;;16.61;100.00;101045.03;5045882;28;20664;-80
2023/09/10 06:14:34;;;;;;;12.70;9.73;;;;;;;16.70;100.00;101046.97;5044632;28;20212;-80
2023/09/10 06:17:00;;;;;;;11.23;10.13;;;;;;;16.77;100.00;101053.56;5049708;28;20229;-80
2023/09/10 06:19:27;;;;;;;10.70;9.70;;;;;;;16.86;100.00;101049.25;5042842;28;20220;-79
2023/09/10 06:21:54;;;;;;;11.43;10.33;;;;;;;16.95;100.00;101054.72;5044823;28;20215;-80
2023/09/10 06:24:20;;;;;;;10.90;9.67;;;;;;;17.06;100.00;101056.50;5042723;28;20214;-77
2023/09/10 06:26:46;;;;;;;10.33;9.33;;;;;;;17.15;99.97;101055.75;5042097;28;20205;-78
2023/09/10 06:29:14;;;;;;;9.97;9.00;;;;;;;17.26;99.43;101052.13;5050280;28;21504;-78
2023/09/10 06:31:43;;;;;;;10.07;8.73;;;;;;;17.37;98.48;101056.63;5041814;28;20294;-78
2023/09/10 06:34:09;;;;;;;9.87;8.87;;;;;;;17.46;97.91;101054.00;5046866;28;20232;-78
2023/09/10 06:36:36;;;;;;;9.40;8.10;;;;;;;17.55;97.69;101057.75;5047330;28;20203;-78
2023/09/10 06:39:03;;;;;;;9.63;8.30;;;;;;;17.64;97.38;101049.75;5047859;28;20215;-78
2023/09/10 06:41:30;;;;;;;8.80;8.00;;;;;;;17.77;97.08;101052.22;5047145;28;20246;-77
2023/09/10 06:43:56;;;;;;;8.20;7.27;;;;;;;17.89;96.10;101051.16;5049063;28;20232;-78
2023/09/10 06:46:23;;;;;;;10.40;8.30;;;;;;;18.00;95.11;101055.59;5046480;28;20204;-77
2023/09/10 06:48:51;;;;;;;8.57;7.77;;;;;;;18.10;94.42;101050.22;5047065;28;20213;-78
2023/09/10 06:51:17;;;;;;;8.37;7.57;;;;;;;18.19;93.70;101055.69;5050111;28;20214;-77
2023/09/10 06:53:43;;;;;;;8.63;6.93;;;;;;;18.32;93.53;101056.28;5050859;28;20236;-78
2023/09/10 06:56:10;;;;;;;8.80;8.00;;;;;;;18.47;92.88;101059.44;5051783;28;20212;-78
2023/09/10 06:58:36;;;;;;;9.63;7.33;;;;;;;18.61;92.12;101052.88;5045243;28;20212;-78
2023/09/10 07:01:07;;;;;;;7.67;6.93;;;;;;;18.78;91.69;101052.19;5050472;28;20213;-77
2023/09/10 07:03:34;;;;;;;8.90;8.00;;;;;;;18.93;90.85;101053.47;5049292;28;20235;-78
2023/09/10 07:06:04;;;;;;;8.60;7.73;;;;;;;19.10;89.95;101053.75;5047559;28;20670;-78
2023/09/10 07:08:31;;;;;;;10.33;7.77;;;;;;;19.24;89.37;101062.28;5052486;28;20202;-79
2023/09/10 07:10:57;;;;;;;9.07;8.17;;;;;;;19.39;88.79;101059.97;5052678;28;20601;-78
2023/09/10 07:13:24;;;;;;;9.10;8.20;;;;;;;19.56;87.98;101047.63;5050071;28;20222;-78
2023/09/10 07:15:50;;;;;;;9.60;7.60;;;;;;;19.71;88.20;101054.25;5046850;28;20288;-78
2023/09/10 07:18:17;;;;;;;9.27;8.30;;;;;;;19.89;87.88;101049.78;5048006;28;20208;-79
2023/09/10 07:20:43;;;;;;;8.80;7.97;;;;;;;20.07;87.22;101053.41;5045034;28;20216;-80
2023/09/10 07:23:11;;;;;;;9.10;8.20;;;;;;;20.25;86.37;101053.50;5054113;28;20645;-79
2023/09/10 07:25:38;;;;;;;13.38;11.27;;;;;;;20.43;85.03;101059.84;5045386;28;20589;-80
2023/09/10 07:28:05;;;;;;;18.80;11.63;;;;;;;20.60;85.13;101055.47;5047739;28;20208;-80
2023/09/10 07:30:32;;;;;;;14.30;11.85;;;;;;;20.77;84.06;101057.38;5050336;28;20691;-80
2023/09/10 07:32:58;;;;;;;12.48;11.10;;;;;;;20.95;83.14;101051.97;5054163;28;20653;-80
2023/09/10 07:35:25;;;;;;;13.35;11.95;;;;;;;21.12;81.67;101053.81;5043370;28;20670;-80
2023/09/10 07:37:53;;;;;;;13.55;11.07;;;;;;;21.28;80.75;101050.44;5042225;28;20208;-81
2023/09/10 07:40:20;;;;;;;12.60;11.15;;;;;;;21.44;79.89;101057.84;5046697;28;20255;-79
2023/09/10 07:42:47;;;;;;;14.93;12.50;;;;;;;21.60;79.40;101057.09;5048966;28;20712;-79
2023/09/10 07:45:14;;;;;;;13.50;12.20;;;;;;;21.74;78.82;101054.66;5042075;28;20220;-77
2023/09/10 07:47:41;;;;;;;13.93;12.25;;;;;;;21.91;78.82;101060.19;5048691;28;20283;-79
2023/09/10 07:50:08;;;;;;;14.05;12.32;;;;;;;22.08;77.99;101060.16;5050576;28;20216;-78
2023/09/10 07:52:35;;;;;;;13.57;12.35;;;;;;;22.22;76.58;101057.81;5042647;28;20280;-78
2023/09/10 07:55:01;;;;;;;14.27;12.85;;;;;;;22.34;76.22;101064.69;5052852;28;20216;-79
2023/09/10 07:57:29;;;;;;;14.75;12.18;;;;;;;22.49;76.03;101065.75;5052494;28;20198;-77
2023/09/10 07:59:55;;;;;;;15.73;14.32;;;;;;;22.64;75.15;101064.09;5041413;28;20216;-78
2023/09/10 08:02:26;;;;;;;16.58;14.98;;;;;;;22.79;74.52;101064.34;5040306;28;20592;-77
2023/09/10 08:04:53;;;;;;;15.88;13.75;;;;;;;22.96;73.54;101067.94;5052251;28;20205;-78
2023/09/10 08:07:19;;;;;;;13.88;12.68;;;;;;;23.06;73.66;101057.78;5050611;28;20205;-78
2023/09/10 08:09:46;;;;;;;18.15;16.48;;;;;;;23.18;72.68;101057.28;5043716;28;20646;-79
2023/09/10 08:12:12;;;;;;;26.83;23.77;;;;;;;23.30;72.69;101065.94;5044822;28;20213;-78
2023/09/10 08:14:41;;;;;;;20.23;18.30;;;;;;;23.46;72.36;101065.09;5046262;28;20232;-79
2023/09/10 08:17:07;;;;;;;19.38;17.15;;;;;;;23.61;70.33;101060.72;5049413;28;20723;-76
2023/09/10 08:19:33;;;;;;;16.42;14.70;;;;;;;23.75;69.33;101054.56;5049412;28;20213;-77
2023/09/10 08:22:00;;;;;;;17.63;15.88;;;;;;;23.87;69.49;101064.03;5050658;28;20205;-80
2023/09/10 08:24:26;;;;;;;19.13;17.15;;;;;;;23.97;68.75;101061.16;5050530;28;20208;-77
2023/09/10 08:26:54;;;;;;;17.08;15.32;;;;;;;24.09;68.44;101062.47;5048147;28;20284;-79
2023/09/10 08:29:20;;;;;;;19.92;17.15;;;;;;;24.22;67.63;101072.78;5048252;28;20651;-78
2023/09/10 08:31:48;;;;;;;16.10;14.52;;;;;;;24.32;66.35;101065.31;5046998;28;20208;-78
2023/09/10 08:34:15;;;;;;;17.20;15.40;;;;;;;24.38;65.72;101061.00;5054420;28;20224;-78
2023/09/10 08:36:41;;;;;;;15.60;14.00;;;;;;;24.46;65.86;101064.56;5048653;28;20244;-78
2023/09/10 08:39:08;;;;;;;16.50;14.90;;;;;;;24.53;65.29;101062.84;5051772;28;20582;-78
2023/09/10 08:41:41;;;;;;;15.77;14.38;;;;;;;24.64;65.41;101066.19;5058238;28;20197;-78
2023/09/10 08:44:10;;;;;;;16.58;15.00;;;;;;;24.73;65.17;101063.22;5047217;28;20231;-78
2023/09/10 08:46:38;;;;;;;16.20;14.70;;;;;;;24.87;64.78;101067.06;5041116;28;20675;-79
2023/09/10 08:49:07;;;;;;;16.08;14.50;;;;;;;24.98;64.25;101071.28;5053971;28;20213;-79
2023/09/10 08:51:36;;;;;;;16.10;14.50;;;;;;;25.08;63.10;101066.47;5043039;28;20201;-78
2023/09/10 08:54:03;;;;;;;16.13;14.60;;;;;;;25.16;63.06;101059.06;5041423;28;20237;-78
2023/09/10 08:56:30;;;;;;;16.05;14.32;;;;;;;25.24;63.19;101061.72;5055194;28;20201;-79
2023/09/10 08:58:57;;;;;;;16.05;14.45;;;;;;;25.35;62.96;101060.44;5053265;28;20202;-78
2023/09/10 09:01:25;;;;;;;16.05;14.57;;;;;;;25.44;62.70;101062.06;5047460;28;20213;-79
2023/09/10 09:03:51;;;;;;;15.15;13.02;;;;;;;25.58;62.47;101058.53;5056948;28;20225;-80
2023/09/10 09:06:20;;;;;;;13.93;12.52;;;;;;;25.75;61.41;101072.06;5057843;28;20202;-79
2023/09/10 09:08:50;;;;;;;16.65;14.52;;;;;;;25.83;61.20;101072.81;5057051;28;20208;-80
2023/09/10 09:11:18;;;;;;;14.05;12.65;;;;;;;25.96;61.12;101071.31;5047340;28;20236;-79
2023/09/10 09:13:47;;;;;;;14.13;12.82;;;;;;;26.08;60.84;101070.66;5052181;28;20593;-78
2023/09/10 09:16:13;;;;;;;14.68;13.38;;;;;;;26.18;61.25;101073.94;5054643;28;20205;-79
2023/09/10 09:18:41;;;;;;;14.88;13.27;;;;;;;26.30;60.15;101070.78;5049748;28;20213;-79
2023/09/10 09:21:12;;;;;;;14.13;12.73;;;;;;;26.37;60.45;101071.72;5057401;28;20244;-78
2023/09/10 09:23:45;;;;;;;13.57;12.45;;;;;;;26.47;59.96;101073.13;5049214;28;20224;-79
2023/09/10 09:26:14;;;;;;;14.63;13.27;;;;;;;26.52;59.68;101065.19;5057575;28;20239;-78
2023/09/10 09:28:40;;;;;;;14.48;13.02;;;;;;;26.56;59.37;101071.13;5058046;28;20232;-77
2023/09/10 09:31:08;;;;;;;13.07;11.85;;;;;;;26.65;59.46;101061.78;5056481;28;20780;-79
2023/09/10 09:33:35;;;;;;;13.45;12.25;;;;;;;26.77;59.11;101068.44;5054384;28;20229;-78
2023/09/10 09:36:06;;;;;;;15.38;13.93;;;;;;;26.86;59.18;101070.03;5057402;28;20205;-78
2023/09/10 09:38:33;;;;;;;14.80;13.38;;;;;;;26.95;59.30;101060.69;5051460;28;20206;-79
2023/09/10 09:41:03;;;;;;;13.40;12.20;;;;;;;27.05;59.26;101065.81;5055485;28;20236;-78
2023/09/10 09:43:29;;;;;;;14.80;13.25;;;;;;;27.12;58.71;101072.22;5045297;28;20546;-79
2023/09/10 09:45:56;;;;;;;14.73;13.20;;;;;;;27.15;58.38;101071.84;5050529;28;20270;-79
2023/09/10 09:48:23;;;;;;;14.13;12.73;;;;;;;27.15;58.21;101065.53;5052225;28;20228;-78
2023/09/10 09:50:49;;;;;;;13.50;12.20;;;;;;;27.15;58.52;101068.25;5045860;28;20224;-79
2023/09/10 09:53:16;;;;;;;14.70;13.30;;;;;;;27.17;58.39;101072.50;5051847;28;20234;-78
2023/09/10 09:55:44;;;;;;;14.52;13.20;;;;;;;27.23;58.05;101057.19;5054001;28;20204;-79
2023/09/10 09:58:12;;;;;;;14.93;13.60;;;;;;;27.28;57.94;101060.16;5048434;28;20292;-78
2023/09/10 10:00:39;;;;;;;13.73;12.23;;;;;;;27.36;58.07;101057.31;5050321;28;20202;-80
2023/09/10 10:03:06;;;;;;;14.70;13.27;;;;;;;27.44;57.46;101053.56;5048093;28;20629;-79
2023/09/10 10:05:33;;;;;;;15.35;13.85;;;;;;;27.48;57.53;101058.47;5047636;28;20206;-79
2023/09/10 10:08:00;;;;;;;14.30;12.90;;;;;;;27.54;57.35;101054.09;5055692;28;20259;-79
2023/09/10 10:10:26;;;;;;;14.60;13.20;;;;;;;27.60;58.02;101043.22;5041374;28;20675;-79
2023/09/10 10:12:53;;;;;;;16.98;13.32;;;;;;;27.68;57.65;101038.66;5057798;28;20233;-79
2023/09/10 10:15:23;;;;;;;14.70;13.30;;;;;;;27.74;56.90;101046.06;5053417;28;20248;-79
2023/09/10 10:17:50;;;;;;;14.55;12.65;;;;;;;27.81;57.11;101039.59;5048658;28;20279;-79
2023/09/10 10:20:18;;;;;;;14.32;12.93;;;;;;;27.92;56.95;101036.31;5049832;28;20213;-78
2023/09/10 10:22:45;;;;;;;14.70;13.30;;;;;;;28.02;56.27;101035.94;5053301;28;20221;-78
2023/09/10 10:25:13;;;;;;;15.07;13.77;;;;;;;28.10;56.22;101033.03;5053310;28;20204;-78
2023/09/10 10:27:42;;;;;;;14.15;12.40;;;;;;;28.16;55.71;101028.63;5048951;28;20201;-78
2023/09/10 10:30:10;;;;;;;14.98;13.52;;;;;;;28.23;55.35;101038.63;5050641;28;20209;-79
2023/09/10 10:32:40;;;;;;;16.45;14.85;;;;;;;28.29;54.83;101026.84;5046351;28;20237;-78
2023/09/10 10:35:09;;;;;;;18.38;14.88;;;;;;;28.33;55.01;101028.13;5049116;28;20225;-78
2023/09/10 10:37:45;;;;;;;16.25;14.55;;;;;;;28.40;54.60;101028.16;5048656;28;20203;-78
2023/09/10 10:40:13;;;;;;;14.95;13.55;;;;;;;28.43;54.96;101027.75;5050641;28;20555;-80
2023/09/10 10:42:49;;;;;;;14.27;12.90;;;;;;;28.47;53.79;101025.44;5051954;28;20781;-78
2023/09/10 10:45:17;;;;;;;14.45;13.00;;;;;;;28.51;53.42;101021.22;5052481;28;20267;-80
2023/09/10 10:47:47;;;;;;;14.27;12.98;;;;;;;28.52;53.41;101021.03;5049714;28;20224;-78
2023/09/10 10:50:16;;;;;;;16.05;14.45;;;;;;;28.50;52.88;101016.78;5055065;28;20209;-78
2023/09/10 10:52:52;;;;;;;13.40;12.18;;;;;;;28.50;53.78;101009.41;5052294;28;20225;-78
2023/09/10 10:55:20;;;;;;;13.88;12.57;;;;;;;28.56;53.35;101005.88;5047802;28;20213;-79
2023/09/10 10:57:47;;;;;;;12.43;11.32;;;;;;;28.63;53.32;101005.91;5042503;28;20206;-78
2023/09/10 11:00:14;;;;;;;11.48;10.38;;;;;;;28.70;53.19;101006.75;5053711;28;20212;-78
2023/09/10 11:02:41;;;;;;;12.38;11.18;;;;;;;28.77;52.59;101001.28;5052172;28;20233;-77
2023/09/10 11:05:09;;;;;;;12.82;11.75;;;;;;;28.84;51.92;101000.25;5048980;28;20232;-77
2023/09/10 11:07:35;;;;;;;13.27;11.63;;;;;;;28.90;52.03;101001.34;5056928;28;20206;-78
2023/09/10 11:10:35;;;;;;;13.07;11.98;;;;;;;28.92;52.24;101000.09;5045509;28;20232;-79
2023/09/10 11:13:05;;;;;;;12.25;11.23;;;;;;;28.98;52.27;100998.41;5048255;28;20239;-79
2023/09/10 11:15:31;;;;;;;14.63;12.88;;;;;;;29.03;51.79;100993.97;5043137;28;20599;-79
2023/09/10 11:18:42;;;;;;;13.20;11.88;;;;;;;29.12;51.54;100999.25;5049209;28;20597;-79